Tiempo atmosférico en la estación meteorológica de Zorita, Cáceres (413 m.)



Fecha
DESCASC
Temp. máxima en grados centígrados (hora)
DESCASC
Temp. mínima en grados centígrados (hora)
DESCASC
Temp. media en grados centígrados
DESCASC
Racha de viento máxima en m/sg (hora)
DESCASC
Velocidad máxima media en intervalos de 10 minutos(hora)
DESCASC
Precipitaciones diarias en mm
DESCASC
Precipitaciones de 00:00 a 06:00 en mm
DESCASC
Precipitaciones de 06:00 a 12:00 en mm
DESCASC
Precipitaciones de 12:00 a 18:00 en mm
DESCASC
Precipitaciones de 18:00 a 24:00 en mm
DESCASC
19-01-2020 12.5 (13:30) 6.2 (06:20) 9.3 13.89 (19:10) 9.44 (19:10) 0 0 0 0 0
18-01-2020 12.3 (18:00) 8.4 (00:30) 10.3 16.11 (21:50) 11.11 (21:30) 3.6 0.6 2.8 0 0.2
17-01-2020 13.7 (16:50) 8.6 (09:40) 11.2 6.39 (13:50) 4.17 (16:30) 0 0 0 0 0
16-01-2020 15.9 (16:50) 9.4 (00:00) 12.6 6.67 (12:20) 5.28 (12:20) 0.4 0 0 0 0.4
15-01-2020 11.7 (20:20) 7.3 (00:00) 9.5 9.44 (11:50) 6.94 (13:10) 0 0 0 0 0
14-01-2020 10.7 (14:30) 2 (00:00) 6.3 6.11 (11:00) 4.44 (11:00) 0 0 0 0 0
13-01-2020 11.6 (15:10) 2.7 (00:00) 7.2 4.44 (01:50) 3.33 (01:50) 0 0 0 0 0
12-01-2020 13 (15:30) 1.5 (00:00) 7.3 5.83 (15:50) 4.17 (18:50) 0 0 0 0 0
11-01-2020 13.7 (16:50) 3.4 (00:00) 8.5 5.56 (19:10) 4.44 (19:00) 0 0 0 0 0
10-01-2020 12.8 (16:10) 3.6 (00:00) 8.2 6.67 (06:50) 5.83 (06:50) 0 0 0 0 0
09-01-2020 10.1 (17:20) 3.4 (00:00) 6.8 3.89 (09:10) 2.78 (01:40) 0 0 0 0 0
08-01-2020 14 (16:10) 4.7 (00:00) 9.3 3.61 (13:50) 2.78 (07:30) 0 0 0 0 0
07-01-2020 15.2 (16:10) 4.5 (00:00) 9.8 5.56 (19:30) 4.72 (19:20) 0 0 0 0 0
06-01-2020 14.3 (16:10) 4.2 (00:00) 9.3 5.56 (21:20) 4.72 (21:20) 0 0 0 0 0
05-01-2020 14.1 (16:00) 3.6 (00:00) 8.9 5.56 (19:50) 5.28 (20:00) 0 0 0 0 0
04-01-2020 12 (16:50) 1.5 (00:00) 6.8 6.11 (15:10) 5 (15:10) 0 0 0 0 0
03-01-2020 11.8 (13:10) 6.3 (00:00) 9.1 8.06 (14:50) 5.28 (14:50) 0 0 0 0 0
02-01-2020 -- (--) -- (--) -- -- (--) -- (--) -- 0 0 -- --
01-01-2020 14.7 (16:00) 4.2 (00:00) 9.4 2.78 (19:40) 2.78 (19:40) 0 0 0 0 0
31-12-2019 15.4 (16:40) 4.4 (00:00) 9.9 3.89 (16:10) 3.33 (22:30) 0 0 0 0 0
30-12-2019 15.3 (16:00) 5.2 (00:00) 10.3 4.17 (03:00) 3.61 (09:30) 0 0 0 0 0
29-12-2019 18.4 (15:30) 8.2 (00:00) 13.3 6.11 (11:30) 4.17 (11:30) 0 0 0 0 0
28-12-2019 19.6 (15:20) 8.5 (00:00) 14.1 5.83 (02:30) 4.72 (02:30) 0 0 0 0 0
27-12-2019 18.5 (16:30) 10.7 (00:00) 14.6 8.06 (09:40) 6.11 (10:00) 0 0 0 0 0
26-12-2019 17.7 (16:20) 8.7 (00:00) 13.2 5.56 (23:30) 4.17 (01:40) 0 0 0 0 0
25-12-2019 19.5 (16:00) 11.6 (00:00) 15.6 7.5 (07:40) 5.83 (07:50) 0 0 0 0 0
24-12-2019 19.3 (16:00) 8.3 (00:00) 13.8 7.5 (21:20) 5.83 (21:20) 0 0 0 0 0
23-12-2019 11.9 (16:40) 5.4 (00:00) 8.6 6.39 (00:40) 4.44 (00:40) 0 0 0 0 0

Gráficas

Temp. máximas Temp. mínimas Temp. medias Precipitaciones Rachas de viento máximas Velocidades máximas media en intervalos de 10 minutos

Datos horarios

Fecha y hora oficial Temperatura (ºC) Velocidad del viento (km/h) Dirección del viento Racha (km/h) Dirección de racha Precipitación (mm) Presión (hPa) Tendencia (hPa) Humedad (%)
2020-01-21 23:00:00 -- -- -- -- -- -- -- -- --
2020-01-21 22:00:00 -- -- -- -- -- -- -- -- --
2020-01-21 21:00:00 -- -- -- -- -- -- -- -- --
2020-01-21 20:00:00 8.8 21 Este 31 Este 0 -- -- 62
2020-01-21 19:00:00 9.2 4 Este 16 Norte 0 -- -- 64
2020-01-21 18:00:00 9.6 9 Norte 13 Norte 0 -- -- 60
2020-01-21 17:00:00 10 3 Noroeste 23 Nordeste 0 -- -- 60
2020-01-21 16:00:00 10 9 Este 24 Este 0 -- -- 60
2020-01-21 15:00:00 10.2 14 Este 28 Este 0 -- -- 57
2020-01-21 14:00:00 10.4 7 Nordeste 17 Este 0 -- -- 55
2020-01-21 13:00:00 9.7 6 Norte 21 Este 0 -- -- 55
2020-01-21 12:00:00 9 8 Sudoeste 11 Sudoeste 0 -- -- 57
2020-01-21 11:00:00 5.8 7 Oeste 12 Noroeste 0 -- -- 67
2020-01-21 10:00:00 5.3 4 Sur 8 Noroeste 0 -- -- 68
2020-01-21 09:00:00 3.8 5 Norte 14 Oeste 0 -- -- 71
2020-01-21 08:00:00 4.9 7 Oeste 14 Sudoeste 0 -- -- 65
2020-01-21 07:00:00 5.3 9 Noroeste 13 Noroeste 0 -- -- 64
2020-01-21 06:00:00 5.7 4 Oeste 21 Este 0 -- -- 60
2020-01-21 05:00:00 7.1 6 Nordeste 35 Nordeste 0 -- -- 55
2020-01-21 04:00:00 8.3 23 Nordeste 37 Este 0 -- -- 52
2020-01-21 03:00:00 8.2 19 Este 33 Este 0 -- -- 52
2020-01-21 02:00:00 7.4 17 Este 27 Este 0 -- -- 54
2020-01-21 01:00:00 8.2 18 Este 54 Este 0 -- -- 51
2020-01-21 00:00:00 8.4 29 Nordeste 53 Nordeste 0 -- -- 50
2020-01-20 23:00:00 8.5 17 Este 47 Nordeste 0 -- -- 50
2020-01-20 22:00:00 8 27 Este 49 Este 0 -- -- 50
2020-01-20 21:00:00 8.1 24 Este 44 Este 0 -- -- 49
2020-01-20 20:00:00 7.2 18 Este 31 Este 0 -- -- 53
2020-01-20 19:00:00 7.9 17 Este 29 Este 0 -- -- 49
2020-01-20 18:00:00 7.9 6 Este 20 Nordeste 0 -- -- 52
2020-01-20 17:00:00 6.7 8 Oeste 25 Nordeste 0 -- -- 62
2020-01-20 16:00:00 7.8 15 Este 42 Este 0 -- -- 56
2020-01-20 15:00:00 8.4 27 Este 49 Este 0 -- -- 47
2020-01-20 14:00:00 7.9 23 Nordeste 46 Este 0 -- -- 49
2020-01-20 13:00:00 7.6 21 Este 45 Este 0 -- -- 46
2020-01-20 12:00:00 8 21 Nordeste 45 Este 0 -- -- 41
2020-01-20 11:00:00 7.7 21 Nordeste 33 Nordeste 0 -- -- 34
2020-01-20 10:00:00 7.1 7 Este 16 Nordeste 0 -- -- 31
2020-01-20 09:00:00 4.1 6 Nordeste 14 Nordeste 0 -- -- 37
2020-01-20 08:00:00 3.5 3 Nordeste 12 Sudeste 0 -- -- 46
2020-01-20 07:00:00 3.7 6 Oeste 13 Oeste 0 -- -- 52
2020-01-20 06:00:00 4.3 9 Oeste 13 Oeste 0 -- -- 49
2020-01-20 05:00:00 4.7 8 Noroeste 13 Sudoeste 0 -- -- 45
2020-01-20 04:00:00 6.2 3 Oeste 13 Nordeste 0 -- -- 36
2020-01-20 03:00:00 5.9 7 Sudeste 15 Este 0 -- -- 39
2020-01-20 02:00:00 6.4 3 Nordeste 15 Nordeste 0 -- -- 35
2020-01-20 01:00:00 7 13 Nordeste 35 Nordeste 0 -- -- 33
2020-01-20 00:00:00 7.5 21 Nordeste 35 Nordeste 0 -- -- 29
2020-01-19 23:00:00 8.4 23 Nordeste 48 Nordeste 0 -- -- 26
2020-01-19 22:00:00 8.9 20 Nordeste 45 Nordeste 0 -- -- 26
2020-01-19 21:00:00 9.6 28 Nordeste 44 Nordeste 0 -- -- 25
2020-01-19 20:00:00 10.2 26 Nordeste 50 Norte 0 -- -- 24
2020-01-19 19:00:00 10.7 29 Nordeste 46 Norte 0 -- -- 28
2020-01-19 18:00:00 11 27 Norte 46 Norte 0 -- -- 31
2020-01-19 17:00:00 11.2 19 Norte 46 Nordeste 0 -- -- 40
2020-01-19 16:00:00 11.7 27 Nordeste 43 Nordeste 0 -- -- 37
2020-01-19 15:00:00 11.4 18 Norte 40 Norte 0 -- -- 48
2020-01-19 14:00:00 12.1 33 Norte 45 Nordeste 0 -- -- 48
2020-01-19 13:00:00 12 25 Norte 37 Norte 0 -- -- 53
2020-01-19 12:00:00 9.7 20 Noroeste 30 Noroeste 0 -- -- 73
2020-01-19 11:00:00 8.6 18 Noroeste 35 Noroeste 0 -- -- 73
2020-01-19 10:00:00 7.6 24 Noroeste 35 Noroeste 0 -- -- 82
2020-01-19 09:00:00 6.2 24 Noroeste 34 Noroeste 0 -- -- 86
2020-01-19 08:00:00 6.4 27 Noroeste 37 Noroeste 0 -- -- 87
2020-01-19 07:00:00 6.3 24 Noroeste 29 Noroeste 0 -- -- 88
2020-01-19 06:00:00 6.5 15 Noroeste 40 Noroeste 0 -- -- 88
2020-01-19 05:00:00 6.8 27 Noroeste 36 Noroeste 0 -- -- 88
2020-01-19 04:00:00 7.3 22 Noroeste 26 Noroeste 0 -- -- 85
2020-01-19 03:00:00 7.5 15 Noroeste 33 Noroeste 0 -- -- 84
2020-01-19 02:00:00 8.7 27 Oeste 43 Oeste 0 -- -- 82
2020-01-19 01:00:00 9.6 25 Oeste 44 Oeste 0 -- -- 77
2020-01-19 00:00:00 10.4 24 Oeste 37 Oeste 0 -- -- 84
2020-01-18 23:00:00 10.3 23 Oeste 40 Oeste 0 -- -- 80
2020-01-18 22:00:00 11.2 33 Oeste 58 Oeste 0.2 -- -- 78
2020-01-18 21:00:00 11.9 30 Oeste 40 Oeste 0 -- -- 87
2020-01-18 20:00:00 11.5 12 Oeste 17 Oeste 0 -- -- 97
2020-01-18 19:00:00 12.1 15 Sudoeste 18 Sudoeste 0 -- -- 96
2020-01-18 18:00:00 12.3 8 Sur 14 Sudoeste 0 -- -- 94
2020-01-18 17:00:00 11.5 3 Este 12 Este 0 -- -- 93
2020-01-18 16:00:00 11.4 8 Este 13 Este 0 -- -- 92
2020-01-18 15:00:00 11.2 12 Este 19 Nordeste 0 -- -- 92
2020-01-18 14:00:00 10.5 14 Nordeste 27 Este 0 -- -- 94
2020-01-18 13:00:00 9.5 22 Nordeste 30 Nordeste 0 -- -- 96
2020-01-18 12:00:00 9.1 22 Nordeste 33 Este 0.4 -- -- 97
2020-01-18 11:00:00 8.9 22 Este 30 Este 0.8 -- -- 97
2020-01-18 10:00:00 8.7 21 Este 30 Este 0.4 -- -- 97
2020-01-18 09:00:00 8.8 20 Nordeste 28 Nordeste 0.6 -- -- 95
2020-01-18 08:00:00 9.4 18 Nordeste 26 Nordeste 0.4 -- -- 91
2020-01-18 07:00:00 9.4 15 Nordeste 23 Nordeste 0.2 -- -- 90
2020-01-18 06:00:00 9.2 13 Este 24 Nordeste 0.6 -- -- 90
2020-01-18 05:00:00 9 15 Nordeste 21 Este 0 -- -- 90
2020-01-18 04:00:00 9 13 Este 18 Este 0 -- -- 88
2020-01-18 03:00:00 9.1 11 Nordeste 18 Este 0 -- -- 86
2020-01-18 02:00:00 8.9 6 Nordeste 9 Este 0 -- -- 87
2020-01-18 01:00:00 8.6 2 Este 6 Norte 0 -- -- 87
2020-01-18 00:00:00 9.4 3 Sudeste 14 Nordeste 0 -- -- 82
2020-01-17 23:00:00 9.1 8 Nordeste 10 Nordeste 0 -- -- 86
2020-01-17 22:00:00 9.7 0 Calma 4 Noroeste 0 -- -- 85
2020-01-17 21:00:00 9.4 2 Noroeste 7 Sudoeste 0 -- -- 85
2020-01-17 20:00:00 10.2 5 Sudoeste 11 Sudoeste 0 -- -- 81
2020-01-17 19:00:00 10.7 5 Sudoeste 8 Noroeste 0 -- -- 69
2020-01-17 18:00:00 12 5 Noroeste 16 Noroeste 0 -- -- 66
2020-01-17 17:00:00 13.4 12 Noroeste 21 Oeste 0 -- -- 59
2020-01-17 16:00:00 12.5 10 Oeste 16 Oeste 0 -- -- 76
2020-01-17 15:00:00 12.3 13 Oeste 21 Oeste 0 -- -- 73
2020-01-17 14:00:00 12.1 9 Oeste 23 Oeste 0 -- -- 78
2020-01-17 13:00:00 11 11 Sudoeste 17 Sudoeste 0 -- -- 89
2020-01-17 12:00:00 10.5 10 Sudoeste 15 Sudoeste 0 -- -- 90
2020-01-17 11:00:00 9.6 0 Calma 11 Sur 0 -- -- 95
2020-01-17 10:00:00 8.8 2 Sudeste 6 Sudoeste 0 -- -- 97
2020-01-17 09:00:00 8.9 5 Sudoeste 9 Sudoeste 0 -- -- 96
2020-01-17 08:00:00 9.2 7 Sudoeste 10 Sudoeste 0 -- -- 94
2020-01-17 07:00:00 9.4 3 Sudoeste 6 Sudoeste 0 -- -- 93
2020-01-17 06:00:00 9.6 3 Norte 6 Sudoeste 0 -- -- 93
2020-01-17 05:00:00 9.8 5 Sur 8 Sudoeste 0 -- -- 91
2020-01-17 04:00:00 10.1 4 Sudoeste 12 Sudoeste 0 -- -- 91
2020-01-17 03:00:00 10.2 6 Sudoeste 13 Este 0 -- -- 80
2020-01-17 02:00:00 10.3 3 Sudeste 10 Sudoeste 0 -- -- 75
2020-01-17 01:00:00 10.2 10 Sudoeste 17 Sur 0 -- -- 74
2020-01-17 00:00:00 10.2 12 Sur 23 Sur 0.4 -- -- 72
2020-01-16 23:00:00 10.9 7 Este 15 Sudeste 0 -- -- 61
2020-01-16 22:00:00 11.2 8 Sudeste 18 Sur 0 -- -- 59
2020-01-16 21:00:00 11.2 11 Sur 21 Sur 0 -- -- 59
2020-01-16 20:00:00 11.3 10 Sur 16 Sur 0 -- -- 60
2020-01-16 19:00:00 12.4 11 Sur 13 Sur 0 -- -- 56
2020-01-16 18:00:00 14.1 9 Sur 23 Sur 0 -- -- 52
2020-01-16 17:00:00 15.8 17 Sudoeste 23 Sur 0 -- -- 49
2020-01-16 16:00:00 15.8 9 Sur 15 Sur 0 -- -- 49
2020-01-16 15:00:00 15.1 10 Sur 23 Sudeste 0 -- -- 52
2020-01-16 14:00:00 14.1 14 Sudeste 21 Sudeste 0 -- -- 61
2020-01-16 13:00:00 13.7 12 Sudeste 24 Este 0 -- -- 63
2020-01-16 12:00:00 12.6 17 Este 23 Este 0 -- -- 70
2020-01-16 11:00:00 11.4 10 Este 19 Este 0 -- -- 81
2020-01-16 10:00:00 10.3 14 Este 20 Este 0 -- -- 85
2020-01-16 09:00:00 9.4 13 Este 18 Este 0 -- -- 89
2020-01-16 08:00:00 10 14 Nordeste 18 Este 0 -- -- 87
2020-01-16 07:00:00 10.6 10 Este 15 Nordeste 0 -- -- 85
2020-01-16 06:00:00 10.8 9 Este 17 Nordeste 0 -- -- 85
2020-01-16 05:00:00 10.9 12 Nordeste 23 Este 0 -- -- 84
2020-01-16 04:00:00 10.9 15 Este 18 Este 0 -- -- 84
2020-01-16 03:00:00 11.2 12 Este 19 Nordeste 0 -- -- 84
2020-01-16 02:00:00 11.1 15 Este 22 Nordeste 0 -- -- 84
2020-01-16 01:00:00 11.3 14 Nordeste 20 Nordeste 0 -- -- 83
2020-01-16 00:00:00 11.5 14 Nordeste 19 Nordeste 0 -- -- 82
2020-01-15 23:00:00 11.4 11 Nordeste 16 Nordeste 0 -- -- 82
2020-01-15 22:00:00 11.5 9 Este 17 Este 0 -- -- 82
2020-01-15 21:00:00 11.5 10 Este 17 Nordeste 0 -- -- 80
2020-01-15 20:00:00 11.5 10 Este 24 Este 0 -- -- 79
2020-01-15 19:00:00 11.2 14 Este 23 Nordeste 0 -- -- 80
2020-01-15 18:00:00 11.2 18 Nordeste 26 Nordeste 0 -- -- 78
2020-01-15 17:00:00 11.1 13 Este 30 Nordeste 0 -- -- 78
2020-01-15 16:00:00 10.3 21 Nordeste 30 Nordeste 0 -- -- 79
2020-01-15 15:00:00 10.1 19 Nordeste 26 Nordeste 0 -- -- 76
2020-01-15 14:00:00 10.2 17 Este 33 Este 0 -- -- 74
2020-01-15 13:00:00 9.6 22 Nordeste 28 Este 0 -- -- 74
2020-01-15 12:00:00 9.4 19 Nordeste 34 Este 0 -- -- 74
2020-01-15 11:00:00 8.9 21 Nordeste 31 Este 0 -- -- 74
2020-01-15 10:00:00 8.1 19 Este 27 Este 0 -- -- 78
2020-01-15 09:00:00 8.1 21 Nordeste 32 Este 0 -- -- 76
2020-01-15 08:00:00 7.9 18 Este 27 Nordeste 0 -- -- 78
2020-01-15 07:00:00 7.7 21 Nordeste 28 Nordeste 0 -- -- 80
2020-01-15 06:00:00 7.4 19 Nordeste 27 Nordeste 0 -- -- 80
2020-01-15 05:00:00 7.6 17 Este 26 Este 0 -- -- 80
2020-01-15 04:00:00 7.6 15 Nordeste 22 Nordeste 0 -- -- 80
2020-01-15 03:00:00 7.4 14 Este 23 Este 0 -- -- 81
2020-01-15 02:00:00 7.6 13 Este 19 Este 0 -- -- 80
2020-01-15 01:00:00 7.9 10 Este 18 Este 0 -- -- 80
2020-01-15 00:00:00 8.5 11 Este 14 Este 0 -- -- 78
2020-01-14 23:00:00 9.4 7 Este 12 Este 0 -- -- 75
2020-01-14 22:00:00 9.6 10 Este 20 Este 0 -- -- 73
2020-01-14 21:00:00 9.9 15 Este 22 Este 0 -- -- 71
2020-01-14 20:00:00 9.8 9 Nordeste 17 Este 0 -- -- 72
2020-01-14 19:00:00 9.9 12 Este 15 Nordeste 0 -- -- 69
2020-01-14 18:00:00 10.2 13 Este 22 Nordeste 0 -- -- 67
2020-01-14 17:00:00 10.3 10 Sudeste 16 Este 0 -- -- 67
2020-01-14 16:00:00 10.4 12 Este 21 Este 0 -- -- 65
2020-01-14 15:00:00 10 14 Este 20 Este 0 -- -- 64
2020-01-14 14:00:00 10 14 Este 19 Este 0 -- -- 67
2020-01-14 13:00:00 9 12 Este 18 Sudeste 0 -- -- 69
2020-01-14 12:00:00 7.9 14 Este 20 Este 0 -- -- 75
2020-01-14 11:00:00 6.6 16 Este 22 Este 0 -- -- 75
2020-01-14 10:00:00 6.3 5 Este 13 Este 0 -- -- 77
2020-01-14 09:00:00 4.4 10 Este 19 Este 0 -- -- 81
2020-01-14 08:00:00 4.1 13 Nordeste 18 Nordeste 0 -- -- 83
2020-01-14 07:00:00 3.1 11 Nordeste 13 Nordeste 0 -- -- 88
2020-01-14 06:00:00 2.8 8 Norte 10 Noroeste 0 -- -- 88
2020-01-14 05:00:00 3 0 Calma 5 Este 0 -- -- 86
2020-01-14 04:00:00 4.1 3 Nordeste 9 Nordeste 0 -- -- 81
2020-01-14 03:00:00 3.9 8 Este 8 Este 0 -- -- 82
2020-01-14 02:00:00 4.8 3 Nordeste 9 Noroeste 0 -- -- 79
2020-01-14 01:00:00 6.4 6 Norte 10 Noroeste 0 -- -- 73
2020-01-14 00:00:00 5.8 4 Noroeste 6 Noroeste 0 -- -- 73
2020-01-13 23:00:00 5.8 0 Calma 5 Noroeste 0 -- -- 72
2020-01-13 22:00:00 5.5 5 Noroeste 6 Noroeste 0 -- -- 75
2020-01-13 21:00:00 5.1 4 Nordeste 6 Norte 0 -- -- 77
2020-01-13 20:00:00 5.9 0 Calma 6 Norte 0 -- -- 75
2020-01-13 19:00:00 8.1 0 Calma 12 Sur 0 -- -- 66
2020-01-13 18:00:00 9.4 8 Sur 12 Oeste 0 -- -- 63
2020-01-13 17:00:00 11.1 9 Sudoeste 14 Oeste 0 -- -- 54
2020-01-13 16:00:00 11 8 Sur 14 Sudoeste 0 -- -- 57
2020-01-13 15:00:00 11.5 5 Sur 9 Sur 0 -- -- 55
2020-01-13 14:00:00 10.3 4 Sudeste 11 Sudeste 0 -- -- 60
2020-01-13 13:00:00 9.3 7 Sudeste 13 Este 0 -- -- 65
2020-01-13 12:00:00 8.1 12 Este 15 Este 0 -- -- 66
2020-01-13 11:00:00 7.1 9 Este 14 Este 0 -- -- 71
2020-01-13 10:00:00 4.8 9 Este 13 Este 0 -- -- 78
2020-01-13 09:00:00 3.7 7 Este 9 Este 0 -- -- 80
2020-01-13 08:00:00 2.9 0 Calma 7 Este 0 -- -- 82
2020-01-13 07:00:00 3.6 5 Este 10 Este 0 -- -- 79
2020-01-13 06:00:00 3.2 6 Este 6 Este 0 -- -- 80
2020-01-13 05:00:00 3.1 4 Norte 7 Este 0 -- -- 80
2020-01-13 04:00:00 4.5 6 Este 8 Este 0 -- -- 75
2020-01-13 03:00:00 5.6 5 Este 12 Nordeste 0 -- -- 73
2020-01-13 02:00:00 5.7 10 Nordeste 16 Nordeste 0 -- -- 73
2020-01-13 01:00:00 5.1 8 Nordeste 10 Este 0 -- -- 70
2020-01-13 00:00:00 4.6 6 Nordeste 9 Nordeste 0 -- -- 72
2020-01-12 23:00:00 4.5 3 Este 6 Este 0 -- -- 69
2020-01-12 22:00:00 5.6 4 Nordeste 6 Nordeste 0 -- -- 62
2020-01-12 21:00:00 7.8 2 Nordeste 15 Norte 0 -- -- 58
2020-01-12 20:00:00 8.4 14 Norte 17 Noroeste 0 -- -- 59
2020-01-12 19:00:00 8.5 15 Noroeste 17 Noroeste 0 -- -- 58
2020-01-12 18:00:00 10.9 11 Noroeste 15 Noroeste 0 -- -- 54
2020-01-12 17:00:00 12.3 12 Oeste 18 Noroeste 0 -- -- 46
2020-01-12 16:00:00 12.7 11 Oeste 21 Oeste 0 -- -- 47
2020-01-12 15:00:00 12.4 10 Sudoeste 14 Sudoeste 0 -- -- 52
2020-01-12 14:00:00 11.2 8 Sudoeste 13 Oeste 0 -- -- 57
2020-01-12 13:00:00 10.8 4 Sudoeste 9 Sudoeste 0 -- -- 61
2020-01-12 12:00:00 9.1 7 Sudeste 12 Sudeste 0 -- -- 64
2020-01-12 11:00:00 7.8 6 Sudeste 9 Sudeste 0 -- -- 66
2020-01-12 10:00:00 5.2 2 Este 8 Noroeste 0 -- -- 78
2020-01-12 09:00:00 1.9 5 Noroeste 8 Noroeste 0 -- -- 85
2020-01-12 08:00:00 2.6 2 Oeste 6 Este 0 -- -- 80
2020-01-12 07:00:00 3.7 5 Este 7 Este 0 -- -- 76
2020-01-12 06:00:00 4.3 0 Calma 4 Norte 0 -- -- 72
2020-01-12 05:00:00 4.9 4 Noroeste 8 Noroeste 0 -- -- 70
2020-01-12 04:00:00 4.2 2 Norte 3 Norte 0 -- -- 75
2020-01-12 03:00:00 5 3 Noroeste 9 Noroeste 0 -- -- 70
2020-01-12 02:00:00 6.7 3 Este 10 Este 0 -- -- 63
2020-01-12 01:00:00 6.1 3 Sur 9 Norte 0 -- -- 66
2020-01-12 00:00:00 6.6 8 Nordeste 10 Nordeste 0 -- -- 64
2020-01-11 23:00:00 6.9 10 Nordeste 12 Nordeste 0 -- -- 63
2020-01-11 22:00:00 7.1 10 Norte 14 Norte 0 -- -- 63
2020-01-11 21:00:00 7.3 10 Norte 12 Norte 0 -- -- 64
2020-01-11 20:00:00 7.6 9 Norte 20 Noroeste 0 -- -- 63
2020-01-11 19:00:00 9 16 Noroeste 18 Noroeste 0 -- -- 57
2020-01-11 18:00:00 11.4 11 Noroeste 13 Noroeste 0 -- -- 52
2020-01-11 17:00:00 13.5 3 Oeste 7 Oeste 0 -- -- 43
2020-01-11 16:00:00 13.1 3 Oeste 10 Oeste 0 -- -- 47
2020-01-11 15:00:00 12.5 5 Oeste 12 Oeste 0 -- -- 51
2020-01-11 14:00:00 12.1 5 Este 13 Este 0 -- -- 49
2020-01-11 13:00:00 11.5 5 Sur 12 Sudeste 0 -- -- 54
2020-01-11 12:00:00 9.9 9 Este 15 Nordeste 0 -- -- 56
2020-01-11 11:00:00 8.6 10 Este 14 Este 0 -- -- 56
2020-01-11 10:00:00 7 9 Nordeste 15 Este 0 -- -- 60
2020-01-11 09:00:00 3.5 4 Nordeste 6 Norte 0 -- -- 71
2020-01-11 08:00:00 4.9 0 Calma 8 Norte 0 -- -- 64
2020-01-11 07:00:00 3.5 5 Norte 10 Noroeste 0 -- -- 71
2020-01-11 06:00:00 3.7 4 Nordeste 6 Nordeste 0 -- -- 70
2020-01-11 05:00:00 4.1 3 Nordeste 6 Norte 0 -- -- 69
2020-01-11 04:00:00 3.9 4 Noroeste 10 Norte 0 -- -- 70
2020-01-11 03:00:00 5.9 5 Noroeste 10 Noroeste 0 -- -- 61
2020-01-11 02:00:00 5.5 2 Norte 6 Norte 0 -- -- 63
2020-01-11 01:00:00 5.6 0 Calma 8 Noroeste 0 -- -- 65
2020-01-11 00:00:00 6.8 3 Norte 9 Norte 0 -- -- 58
2020-01-10 23:00:00 8.4 6 Norte 14 Norte 0 -- -- 51
2020-01-10 22:00:00 8.8 12 Nordeste 18 Nordeste 0 -- -- 52
2020-01-10 21:00:00 7.9 4 Norte 9 Noroeste 0 -- -- 54
2020-01-10 20:00:00 8.7 5 Nordeste 13 Nordeste 0 -- -- 52
2020-01-10 19:00:00 9.5 11 Nordeste 13 Nordeste 0 -- -- 51
2020-01-10 18:00:00 11.8 7 Este 17 Este 0 -- -- 47
2020-01-10 17:00:00 12.6 5 Este 13 Sudeste 0 -- -- 46
2020-01-10 16:00:00 12.6 4 Norte 9 Norte 0 -- -- 55
2020-01-10 15:00:00 11.8 4 Sudeste 13 Este 0 -- -- 61
2020-01-10 14:00:00 11 6 Oeste 17 Noroeste 0 -- -- 72
2020-01-10 13:00:00 9.6 10 Noroeste 13 Noroeste 0 -- -- 78
2020-01-10 12:00:00 9.5 7 Este 17 Sudeste 0 -- -- 82
2020-01-10 11:00:00 8.3 11 Este 19 Nordeste 0 -- -- 86
2020-01-10 10:00:00 6.7 13 Nordeste 23 Nordeste 0 -- -- 91
2020-01-10 09:00:00 5.1 13 Nordeste 22 Nordeste 0 -- -- 96
2020-01-10 08:00:00 4.1 16 Nordeste 24 Nordeste 0 -- -- 98
2020-01-10 07:00:00 3.8 16 Noroeste 24 Noroeste 0 -- -- 85
2020-01-10 06:00:00 4.1 12 Noroeste 16 Noroeste 0 -- -- 88
2020-01-10 05:00:00 5.6 12 Noroeste 17 Noroeste 0 -- -- 84
2020-01-10 04:00:00 6.4 12 Oeste 18 Oeste 0 -- -- 85
2020-01-10 03:00:00 7.1 12 Noroeste 19 Noroeste 0 -- -- 92
2020-01-10 02:00:00 8.8 5 Noroeste 22 Noroeste 0 -- -- 92
2020-01-10 01:00:00 9.4 17 Noroeste 21 Noroeste 0 -- -- 93
2020-01-10 00:00:00 8.6 0 Calma 5 Nordeste 0 -- -- 91
2020-01-09 23:00:00 8.7 3 Sur 6 Oeste 0 -- -- 91
2020-01-09 22:00:00 9.4 4 Noroeste 6 Oeste 0 -- -- 87
2020-01-09 21:00:00 8.5 5 Noroeste 8 Oeste 0 -- -- 91
2020-01-09 20:00:00 8.2 5 Noroeste 7 Noroeste 0 -- -- 91
2020-01-09 19:00:00 8 4 Noroeste 5 Noroeste 0 -- -- 89
2020-01-09 18:00:00 9.5 0 Calma 7 Sur 0 -- -- 86
2020-01-09 17:00:00 9.8 5 Oeste 11 Oeste 0 -- -- 85
2020-01-09 16:00:00 9.5 5 Sudoeste 10 Sudoeste 0 -- -- 84
2020-01-09 15:00:00 8.3 6 Sur 10 Sur 0 -- -- 89
2020-01-09 14:00:00 8.3 7 Sudeste 11 Sur 0 -- -- 88
2020-01-09 13:00:00 8.8 7 Sudoeste 12 Sudoeste 0 -- -- 83
2020-01-09 12:00:00 8.9 6 Sudoeste 10 Oeste 0 -- -- 85
2020-01-09 11:00:00 7.5 7 Este 12 Este 0 -- -- 88
2020-01-09 10:00:00 5.6 5 Oeste 14 Noroeste 0 -- -- 96
2020-01-09 09:00:00 4.3 2 Nordeste 7 Este 0 -- -- 92
2020-01-09 08:00:00 4.2 6 Este 7 Este 0 -- -- 94
2020-01-09 07:00:00 5.1 3 Sudeste 7 Noroeste 0 -- -- 93
2020-01-09 06:00:00 4.4 4 Noroeste 6 Noroeste 0 -- -- 93
2020-01-09 05:00:00 4.6 4 Este 6 Nordeste 0 -- -- 92
2020-01-09 04:00:00 4.7 2 Este 5 Este 0 -- -- 89
2020-01-09 03:00:00 5.9 3 Norte 11 Este 0 -- -- 87
2020-01-09 02:00:00 6.8 8 Nordeste 13 Este 0 -- -- 86
2020-01-09 01:00:00 6.4 2 Noroeste 6 Norte 0 -- -- 88
2020-01-09 00:00:00 6.7 6 Nordeste 8 Norte 0 -- -- 87
2020-01-08 23:00:00 6.9 4 Nordeste 9 Nordeste 0 -- -- 84
2020-01-08 22:00:00 7.7 8 Nordeste 9 Nordeste 0 -- -- 84
2020-01-08 21:00:00 7.7 2 Este 6 Noroeste 0 -- -- 83
2020-01-08 20:00:00 8.8 3 Oeste 6 Norte 0 -- -- 81
2020-01-08 19:00:00 9.7 4 Norte 5 Noroeste 0 -- -- 78
2020-01-08 18:00:00 13 3 Oeste 6 Sur 0 -- -- 68
2020-01-08 17:00:00 13.9 4 Sur 8 Sur 0 -- -- 62
2020-01-08 16:00:00 13.9 4 Sur 9 Sudoeste 0 -- -- 67
2020-01-08 15:00:00 13.1 5 Sur 12 Sudeste 0 -- -- 66
2020-01-08 14:00:00 12.1 8 Sudeste 13 Sudeste 0 -- -- 72
2020-01-08 13:00:00 11.4 6 Sur 10 Sur 0 -- -- 77
2020-01-08 12:00:00 9.5 2 Sudeste 5 Sur 0 -- -- 81
2020-01-08 11:00:00 6.5 0 Calma 4 Oeste 0 -- -- 89
2020-01-08 10:00:00 5.4 3 Este 5 Este 0 -- -- 90
2020-01-08 09:00:00 4.8 3 Noroeste 9 Este 0 -- -- 88
2020-01-08 08:00:00 6.3 9 Este 12 Este 0 -- -- 90
2020-01-08 07:00:00 5.3 4 Este 8 Este 0 -- -- 91
2020-01-08 06:00:00 6.2 5 Este 12 Nordeste 0 -- -- 90
2020-01-08 05:00:00 5.6 5 Este 8 Este 0 -- -- 90
2020-01-08 04:00:00 5.2 8 Nordeste 9 Nordeste 0 -- -- 87
2020-01-08 03:00:00 5.7 9 Nordeste 12 Nordeste 0 -- -- 82
2020-01-08 02:00:00 5.8 8 Nordeste 10 Nordeste 0 -- -- 85
2020-01-08 01:00:00 5.5 5 Nordeste 6 Nordeste 0 -- -- 82
2020-01-08 00:00:00 6.4 2 Norte 4 Norte 0 -- -- 80
2020-01-07 23:00:00 7.6 0 Calma 5 Norte 0 -- -- 80
2020-01-07 22:00:00 7.9 3 Noroeste 9 Nordeste 0 -- -- 79
2020-01-07 21:00:00 9.5 2 Noroeste 11 Noroeste 0 -- -- 76
2020-01-07 20:00:00 9.7 7 Norte 20 Noroeste 0 -- -- 75
2020-01-07 19:00:00 9.9 16 Noroeste 19 Noroeste 0 -- -- 68
2020-01-07 18:00:00 13.1 9 Oeste 10 Sudoeste 0 -- -- 72
2020-01-07 17:00:00 14.7 7 Sudoeste 10 Sudoeste 0 -- -- 63
2020-01-07 16:00:00 15.1 6 Sudoeste 15 Sudoeste 0 -- -- 63
2020-01-07 15:00:00 14.9 8 Sudoeste 13 Sudoeste 0 -- -- 61
2020-01-07 14:00:00 13.4 6 Sudoeste 10 Sudoeste 0 -- -- 65
2020-01-07 13:00:00 12.4 4 Sudoeste 8 Sudoeste 0 -- -- 72
2020-01-07 12:00:00 -- -- -- -- -- -- -- -- --
2020-01-07 11:00:00 -- -- -- -- -- -- -- -- --
2020-01-07 10:00:00 -- -- -- -- -- -- -- -- --
2020-01-07 09:00:00 -- -- -- -- -- -- -- -- --
2020-01-07 08:00:00 -- -- -- -- -- -- -- -- --
2020-01-07 07:00:00 -- -- -- -- -- -- -- -- --
2020-01-07 06:00:00 -- -- -- -- -- -- -- -- --
2020-01-07 05:00:00 -- -- -- -- -- -- -- -- --
2020-01-07 04:00:00 -- -- -- -- -- -- -- -- --
2020-01-07 03:00:00 -- -- -- -- -- -- -- -- --
2020-01-07 02:00:00 -- -- -- -- -- -- -- -- --
2020-01-07 01:00:00 -- -- -- -- -- -- -- -- --
2020-01-07 00:00:00 -- -- -- -- -- -- -- -- --
2020-01-06 23:00:00 -- -- -- -- -- -- -- -- --
2020-01-06 22:00:00 -- -- -- -- -- -- -- -- --
2020-01-06 21:00:00 -- -- -- -- -- -- -- -- --
2020-01-06 20:00:00 -- -- -- -- -- -- -- -- --
2020-01-06 19:00:00 -- -- -- -- -- -- -- -- --
2020-01-06 18:00:00 -- -- -- -- -- -- -- -- --
2020-01-06 17:00:00 -- -- -- -- -- -- -- -- --
2020-01-06 16:00:00 -- -- -- -- -- -- -- -- --
2020-01-06 15:00:00 -- -- -- -- -- -- -- -- --
2020-01-06 14:00:00 -- -- -- -- -- -- -- -- --
2020-01-06 13:00:00 -- -- -- -- -- -- -- -- --
2020-01-06 12:00:00 -- -- -- -- -- -- -- -- --
2020-01-06 11:00:00 -- -- -- -- -- -- -- -- --
2020-01-06 10:00:00 -- -- -- -- -- -- -- -- --